Nearby METAR Reports

 

KHOB - Hobbs, New Mexico, USA
Distance from station: S 40mi, 65km
Updated: Thu, 21-Jan-2021 11:55pm MST
Clear
Clear
 Wind from WSW
Wind: WSW 10 mph , 17 km/h
Temperature: 45°F , 7°C
Wind Chill: 40°F , 4°C
Dew Point: 39°F , 4°C
Humidity: 81%
Barometer: 29.97 inHg , 1014.9 hPa
Clouds: Clear
Visibility: 10 miles , 16 km
2021/01/22 06:55 KHOB 220655Z AUTO 25009KT 10SM CLR 07/04 A2997 RMK AO2
KGNC - Seminole, Texas, USA
Distance from station: SE 55mi, 89km
Updated: Thu, 21-Jan-2021 11:55pm MST
Clear
Clear
 Wind from W
Wind: W 15 mph , 24 km/h
Temperature: 52°F , 11°C
Dew Point: 39°F , 4°C
Humidity: 62%
Barometer: 30.00 inHg , 1015.9 hPa
Clouds: Clear
Visibility: 10 miles , 16 km
2021/01/22 06:55 KGNC 220655Z AUTO 27013KT 10SM CLR 11/04 A3000 RMK AO2 T01070042
 
KROW - Roswell, New Mexico, USA
Distance from station: W 67mi, 108km
Updated: Thu, 21-Jan-2021 11:51pm MST
Clear
Clear
 Wind from WNW
Wind: WNW 9 mph , 15 km/h
Temperature: 48°F , 9°C
Wind Chill: 44°F , 7°C
Dew Point: 36°F , 2°C
Humidity: 62%
Barometer: 29.96 inHg , 1014.6 hPa
Clouds: Clear
Visibility: 10 miles , 16 km
2021/01/22 06:51 KROW 220651Z AUTO 30008KT 10SM CLR 09/02 A2996 RMK AO2 SLP112 T00890017 401780039
KATS - Artesia, New Mexico, USA
Distance from station: WSW 71mi, 114km
Updated: Thu, 21-Jan-2021 11:55pm MST
Clear
Clear
 Wind from NW
Wind: NW 6 mph , 9 km/h
Temperature: 43°F , 6°C
Wind Chill: 39°F , 4°C
Dew Point: 32°F , 0°C
Humidity: 66%
Barometer: 30.00 inHg , 1015.9 hPa
Clouds: Clear
Visibility: 10 miles , 16 km
2021/01/22 06:55 KATS 220655Z AUTO 32005KT 10SM CLR 06/00 A3000 RMK AO2
 
KCVS - Cannon AFB,Clovis, New Mexico, USA
Distance from station: 0 78mi, 125km
Updated: Wed, 20-Jan-2021 11:56am MST
NOT Current
Partly cloudy
Partly cloudy
 Wind from WSW
Wind: WSW 16 mph , 26 km/h
Temperature: 46°F , 8°C
Wind Chill: 39°F , 4°C
Dew Point: 23°F , -5°C
Humidity: 40%
Barometer: 30.18 inHg , 1022 hPa
Clouds: Partly cloudy
Visibility: 10 miles , 16 km
Cloud details: Partly cloudy 5500 ft
2021/01/20 18:56 KCVS 201856Z AUTO 24014KT 10SM SCT055 08/M05 A3018 RMK AO2 SLP220 T00801048 $
KE11 - Andrews, Texas, USA
Distance from station: SE 78mi, 126km
Updated: Thu, 21-Jan-2021 11:55pm MST
Clear
Clear
 Wind from WSW
Wind: WSW 9 mph , 15 km/h
Temperature: 50°F , 10°C
Wind Chill: 46°F , 8°C
Dew Point: 46°F , 8°C
Humidity: 88%
Barometer: 29.97 inHg , 1014.9 hPa
Clouds: Clear
Visibility: 10 miles , 16 km
2021/01/22 06:55 KE11 220655Z AUTO 25008KT 10SM CLR 10/08 A2997 RMK AO2 T01000080
 
KCNM - Carlsbad, New Mexico, USA
Distance from station: SW 82mi, 132km
Updated: Thu, 21-Jan-2021 11:53pm MST
Clear
Clear
 Wind from NNE
Wind: NNE 9 mph , 15 km/h
Temperature: 48°F , 9°C
Wind Chill: 44°F , 7°C
Dew Point: 39°F , 4°C
Humidity: 71%
Barometer: 29.98 inHg , 1015.2 hPa
Clouds: Clear
Visibility: 10 miles , 16 km
2021/01/22 06:53 KCNM 220653Z AUTO 03008KT 10SM CLR 09/04 A2998 RMK AO2 SLP123 T00940044 401940061 $
KCVN - Clovis Muni, New Mexico, USA
Distance from station: N 83mi, 133km
Updated: Thu, 21-Jan-2021 11:56pm MST
Clear
Clear
 Wind from W
Wind: W 12 mph , 19 km/h
Temperature: 43°F , 6°C
Wind Chill: 37°F , 3°C
Dew Point: 27°F , -3°C
Humidity: 53%
Barometer: 29.94 inHg , 1013.9 hPa
Clouds: Clear
Visibility: 10 miles , 16 km
2021/01/22 06:56 KCVN 220656Z AUTO 28010KT 10SM CLR 06/M03 A2994 RMK AO2 SLP124 T00561028 401830044
 
KLBB - Lubbock, Texas, USA
Distance from station: ENE 92mi, 149km
Updated: Thu, 21-Jan-2021 11:53pm MST
Clear
Clear
 Wind from WNW
Wind: WNW 13 mph , 20 km/h
Temperature: 45°F , 7°C
Wind Chill: 39°F , 4°C
Dew Point: 32°F , 0°C
Humidity: 61%
Barometer: 29.91 inHg , 1012.9 hPa
Clouds: Clear
Visibility: 10 miles , 16 km
2021/01/22 06:53 KLBB 220653Z 29011KT 10SM CLR 07/00 A2991 RMK AO2 SLP109 T00720000
KINK - Wink, Texas, USA
Distance from station: S 101mi, 163km
Updated: Thu, 21-Jan-2021 11:53pm MST
Few Clouds
Few Clouds
 Wind from NW
Wind: NW 8 mph , 13 km/h
Temperature: 54°F , 12°C
Dew Point: 43°F , 6°C
Humidity: 67%
Barometer: 29.97 inHg , 1014.9 hPa
Clouds: Few Clouds
Visibility: 10 miles , 16 km
Cloud details: Few Clouds 12000 ft
2021/01/22 06:53 KINK 220653Z AUTO 32007KT 10SM FEW120 12/06 A2997 RMK AO2 PRESRR SLP126 T01220061
 
KMAF - Midland, Texas, USA
Distance from station: SE 111mi, 179km
Updated: Thu, 21-Jan-2021 11:53pm MST
Few Clouds
Few Clouds
 Wind from W
Wind: W 9 mph , 15 km/h
Temperature: 54°F , 12°C
Dew Point: 46°F , 8°C
Humidity: 77%
Barometer: 29.96 inHg , 1014.6 hPa
Clouds: Few Clouds
Visibility: 10 miles , 16 km
Cloud details: Few Clouds 12000 ft
2021/01/22 06:53 KMAF 220653Z AUTO 27008KT 10SM FEW120 12/08 A2996 RMK AO2 SLP121 T01170078
KSRR - Sierra B/Ruidoso, New Mexico, USA
Distance from station: W 127mi, 204km
Updated: Thu, 21-Jan-2021 11:55pm MST
Clear
Clear
 Wind from W
Wind: W 6 mph , 9 km/h
Temperature: 32°F , 0°C
Wind Chill: 26°F , -3°C
Dew Point: 30°F , -1°C
Humidity: 93%
Barometer: 30.08 inHg , 1018.6 hPa
Clouds: Clear
Visibility: 10 miles , 16 km
2021/01/22 06:55 KSRR 220655Z AUTO 28005KT 10SM CLR 00/M01 A3008 RMK AO2
 
KGDP - Guadalupe Pass, Texas, USA
Distance from station: SW 130mi, 209km
Updated: Thu, 21-Jan-2021 11:51pm MST
Fog, Overcast
Fog, Overcast
 Wind from WSW
Wind: WSW 24 mph , 39 km/h
Temperature: 43°F , 6°C
Wind Chill: 34°F , 1°C
Dew Point: 39°F , 4°C
Humidity: 87%
Barometer: 30.05 inHg , 1017.6 hPa
Summary: Fog
Clouds: Overcast
Visibility: 1/4 mile , 0.4 km
Cloud details: Overcast 200 ft
2021/01/22 06:51 KGDP 220651Z AUTO 25021KT 1/4SM FG VV002 06/04 A3005 RMK AO2 PK WND 25026/0645 SLP152 T00560039 400890033